createdAt,value
2017-08-13T00:14:44.000Z,4.1
2017-08-13T00:31:30.000Z,4.1
2017-08-13T00:48:17.000Z,4.1
2017-08-13T01:05:04.000Z,4.1
2017-08-13T01:21:50.000Z,4.1
2017-08-13T01:38:36.000Z,4.1
2017-08-13T01:55:23.000Z,4.1
2017-08-13T02:12:09.000Z,4
2017-08-13T02:28:55.000Z,4
2017-08-13T02:45:42.000Z,4
2017-08-13T03:02:28.000Z,4
2017-08-13T03:19:14.000Z,4
2017-08-13T03:36:00.000Z,4
2017-08-13T03:52:47.000Z,4
2017-08-13T04:09:34.000Z,4
2017-08-13T04:26:20.000Z,3.9
2017-08-13T04:43:05.000Z,4
2017-08-13T04:59:52.000Z,4
2017-08-13T05:16:39.000Z,4.1
2017-08-13T05:33:25.000Z,4.3
2017-08-13T05:43:29.000Z,4.4
2017-08-13T06:00:17.000Z,4.6
2017-08-13T06:17:05.000Z,4.6
2017-08-13T06:33:53.000Z,4.6
2017-08-13T06:50:41.000Z,4.6
2017-08-13T07:07:30.000Z,4.6
2017-08-13T07:24:18.000Z,4.6
2017-08-13T07:41:06.000Z,4.6
2017-08-13T07:57:54.000Z,4.6
2017-08-13T08:14:42.000Z,4.6
2017-08-13T08:31:30.000Z,4.6
2017-08-13T08:48:19.000Z,4.6
2017-08-13T09:05:07.000Z,4.6
2017-08-13T09:21:56.000Z,4.6
2017-08-13T09:38:45.000Z,4.6
2017-08-13T09:55:33.000Z,4.6
2017-08-13T10:12:23.000Z,4.6
2017-08-13T10:29:12.000Z,4.6
2017-08-13T10:46:01.000Z,4.6
2017-08-13T11:02:50.000Z,4.5
2017-08-13T11:19:39.000Z,4.5
2017-08-13T11:36:27.000Z,4.6
2017-08-13T11:53:17.000Z,4.6
2017-08-13T12:10:06.000Z,4.6
2017-08-13T12:26:56.000Z,4.6
2017-08-13T12:40:24.000Z,4.6
2017-08-13T12:57:14.000Z,4.6
2017-08-13T13:14:03.000Z,4.5
2017-08-13T13:30:52.000Z,4.5
2017-08-13T13:47:41.000Z,4.5
2017-08-13T14:04:30.000Z,4.6
2017-08-13T14:21:19.000Z,4.6
2017-08-13T14:38:09.000Z,4.6
2017-08-13T14:54:58.000Z,4.6
2017-08-13T15:11:47.000Z,4.5
2017-08-13T15:28:36.000Z,4.5
2017-08-13T15:45:25.000Z,4.5
2017-08-13T16:02:14.000Z,4.5
2017-08-13T16:19:02.000Z,4.5
2017-08-13T16:35:52.000Z,4.5
2017-08-13T16:52:40.000Z,4.5
2017-08-13T17:09:29.000Z,4.5
2017-08-13T17:26:17.000Z,4.4
2017-08-13T17:43:06.000Z,4.4
2017-08-13T17:59:55.000Z,4.4
2017-08-13T18:16:43.000Z,4.4
2017-08-13T18:33:32.000Z,4.4
2017-08-13T18:50:21.000Z,4.3
2017-08-13T19:07:10.000Z,4.3
2017-08-13T19:23:59.000Z,4.3
2017-08-13T19:40:47.000Z,4.3
2017-08-13T19:57:36.000Z,4.3
2017-08-13T20:14:25.000Z,4.2
2017-08-13T20:31:12.000Z,4.2
2017-08-13T20:48:00.000Z,4.2
2017-08-13T21:04:47.000Z,4.2
2017-08-13T21:21:34.000Z,4.2
2017-08-13T21:38:22.000Z,4.2
2017-08-13T21:55:10.000Z,4.2
2017-08-13T22:11:57.000Z,4.2
2017-08-13T22:28:45.000Z,4.2
2017-08-13T22:45:32.000Z,4.2
2017-08-13T23:02:19.000Z,4.1
2017-08-13T23:19:07.000Z,4.1
2017-08-13T23:35:54.000Z,4.1
2017-08-13T23:52:41.000Z,4.1
